Time;durP1;ratioP1;P1;durP2;ratioP2;P2;SDS_P1;SDS_P2;PMS_P1;PMS_P2;Temp;Humidity;BMP_temperature;BMP_pressure;BME280_temperature;BME280_humidity;BME280_pressure;Samples;Min_cycle;Max_cycle;Signal;HPM_P1;HPM_P2
2021/07/26 00:00:00;;;;;;;2.83;2.38;;;23.60;63.70;;;;;;5034719;28;20295;-68
2021/07/26 00:02:26;;;;;;;3.00;2.80;;;23.70;63.80;;;;;;5035206;28;20213;-68
2021/07/26 00:04:51;;;;;;;2.95;2.25;;;23.60;63.80;;;;;;5035293;28;20180;-68
2021/07/26 00:07:20;;;;;;;2.67;2.33;;;23.60;63.80;;;;;;5034222;28;20179;-68
2021/07/26 00:09:45;;;;;;;3.10;2.78;;;23.60;63.80;;;;;;5035343;28;20179;-68
2021/07/26 00:12:11;;;;;;;2.67;2.45;;;23.60;63.80;;;;;;5035281;28;20194;-68
2021/07/26 00:14:36;;;;;;;2.72;2.53;;;23.60;63.80;;;;;;5034208;28;20527;-68
2021/07/26 00:17:02;;;;;;;3.00;2.70;;;23.60;63.80;;;;;;5035148;28;20172;-68
2021/07/26 00:19:27;;;;;;;2.38;2.17;;;23.60;63.70;;;;;;5034902;28;20299;-68
2021/07/26 00:21:53;;;;;;;2.95;2.50;;;23.60;63.80;;;;;;5034280;28;20177;-69
2021/07/26 00:24:21;;;;;;;2.67;2.47;;;23.60;63.80;;;;;;5034507;28;20196;-69
2021/07/26 00:26:47;;;;;;;3.00;2.70;;;23.60;63.80;;;;;;5034757;28;20172;-68
2021/07/26 00:29:12;;;;;;;2.97;2.65;;;23.60;63.80;;;;;;5034325;28;20172;-67
2021/07/26 00:31:38;;;;;;;3.00;2.70;;;23.60;63.80;;;;;;5034718;28;20186;-67
2021/07/26 00:34:10;;;;;;;2.88;2.67;;;23.60;63.70;;;;;;5034803;28;20199;-67
2021/07/26 00:36:39;;;;;;;2.70;2.50;;;23.60;63.80;;;;;;5034903;28;20214;-68
2021/07/26 00:39:06;;;;;;;2.88;2.50;;;23.60;63.80;;;;;;5034679;28;20222;-68
2021/07/26 00:41:32;;;;;;;2.55;2.35;;;23.60;63.80;;;;;;5033491;28;20768;-68
2021/07/26 00:43:58;;;;;;;2.47;2.28;;;23.60;63.80;;;;;;5034341;28;20187;-69
2021/07/26 00:46:23;;;;;;;2.50;2.30;;;23.60;63.80;;;;;;5034134;28;20180;-69
2021/07/26 00:48:49;;;;;;;2.53;2.33;;;23.50;63.70;;;;;;5033787;28;20220;-68
2021/07/26 00:51:14;;;;;;;2.83;2.50;;;23.60;63.80;;;;;;5017347;28;20172;-68
2021/07/26 00:53:40;;;;;;;2.10;2.00;;;23.50;63.80;;;;;;5034139;28;20168;-68
2021/07/26 00:56:08;;;;;;;2.80;2.60;;;23.60;63.90;;;;;;5033709;28;20168;-68
2021/07/26 00:58:34;;;;;;;4.03;2.78;;;23.60;63.80;;;;;;5033886;28;20195;-68
2021/07/26 01:01:00;;;;;;;3.05;2.63;;;23.60;63.80;;;;;;5034775;28;20262;-67
2021/07/26 01:03:26;;;;;;;2.92;2.72;;;23.50;63.70;;;;;;5033285;28;20262;-68
2021/07/26 01:05:54;;;;;;;2.97;2.70;;;23.50;63.80;;;;;;5034351;28;20180;-68
2021/07/26 01:08:20;;;;;;;2.55;2.35;;;23.50;63.70;;;;;;5034362;28;20649;-69
2021/07/26 01:10:45;;;;;;;2.50;2.30;;;23.50;63.80;;;;;;5033434;28;20207;-67
2021/07/26 01:13:14;;;;;;;2.55;2.35;;;23.50;63.70;;;;;;5033284;28;20179;-68
2021/07/26 01:15:39;;;;;;;2.63;2.42;;;23.50;63.70;;;;;;5033999;28;20168;-67
2021/07/26 01:18:27;;;;;;;2.42;2.22;;;23.50;63.80;;;;;;5033284;28;20176;-68
2021/07/26 01:20:56;;;;;;;2.70;2.50;;;23.50;63.80;;;;;;5033842;28;20221;-68
2021/07/26 01:23:25;;;;;;;3.22;2.20;;;23.50;63.70;;;;;;5032817;28;20172;-68
2021/07/26 01:25:51;;;;;;;2.47;2.13;;;23.50;63.90;;;;;;5033816;28;20644;-68
2021/07/26 01:28:20;;;;;;;2.40;2.30;;;23.50;63.80;;;;;;5033715;28;20183;-67
2021/07/26 01:30:46;;;;;;;3.00;2.38;;;23.50;63.80;;;;;;5033019;28;20176;-66
2021/07/26 01:33:12;;;;;;;2.67;2.40;;;23.50;63.80;;;;;;5033811;28;20186;-67
2021/07/26 01:35:38;;;;;;;2.47;2.28;;;23.50;63.80;;;;;;5033293;28;20172;-67
2021/07/26 01:38:07;;;;;;;2.40;2.20;;;23.50;63.80;;;;;;5032795;28;20229;-68
2021/07/26 01:40:37;;;;;;;2.95;2.45;;;23.50;63.70;;;;;;5032995;28;20211;-68
2021/07/26 01:43:03;;;;;;;3.13;2.40;;;23.50;63.80;;;;;;5033731;28;20258;-68
2021/07/26 01:45:36;;;;;;;2.58;2.38;;;23.50;63.90;;;;;;5032703;28;20317;-69
2021/07/26 01:48:04;;;;;;;2.85;2.45;;;23.40;63.70;;;;;;5033300;28;20184;-68
2021/07/26 01:50:59;;;;;;;2.60;2.40;;;23.40;63.70;;;;;;5015706;28;20223;-67
2021/07/26 01:53:27;;;;;;;2.65;2.45;;;23.40;63.70;;;;;;5032196;28;20176;-67
2021/07/26 01:55:53;;;;;;;2.53;2.33;;;23.40;63.70;;;;;;5032888;28;20186;-67
2021/07/26 01:58:18;;;;;;;2.58;2.38;;;23.40;63.70;;;;;;5015783;28;20258;-68
2021/07/26 02:00:44;;;;;;;2.42;2.22;;;23.40;63.80;;;;;;5032715;28;20370;-67
2021/07/26 02:03:09;;;;;;;2.70;2.30;;;23.40;63.80;;;;;;5033216;28;20203;-67
2021/07/26 02:05:35;;;;;;;2.70;2.45;;;23.40;63.80;;;;;;5032127;28;20180;-68
2021/07/26 02:08:00;;;;;;;2.50;2.30;;;23.40;63.70;;;;;;5032984;28;20198;-68
2021/07/26 02:10:26;;;;;;;2.53;2.42;;;23.40;63.70;;;;;;5033499;28;20543;-69
2021/07/26 02:12:51;;;;;;;3.05;2.33;;;23.40;63.80;;;;;;5017560;28;20176;-68
2021/07/26 02:15:20;;;;;;;2.45;2.25;;;23.40;63.70;;;;;;5034022;28;20175;-67
2021/07/26 02:17:45;;;;;;;2.40;2.20;;;23.40;63.80;;;;;;5034166;28;20507;-68
2021/07/26 02:20:11;;;;;;;2.88;2.53;;;23.40;63.80;;;;;;5033289;28;20704;-68
2021/07/26 02:22:37;;;;;;;1.92;1.83;;;23.40;63.90;;;;;;5033472;28;20184;-69
2021/07/26 02:25:02;;;;;;;2.38;2.10;;;23.40;63.80;;;;;;5033961;28;20183;-68
2021/07/26 02:27:28;;;;;;;2.67;2.05;;;23.40;63.80;;;;;;5032686;28;20230;-67
2021/07/26 02:29:53;;;;;;;3.17;2.50;;;23.40;63.80;;;;;;5033615;28;20176;-67
2021/07/26 02:32:19;;;;;;;3.45;2.33;;;23.40;63.90;;;;;;5033917;28;20642;-67
2021/07/26 02:34:44;;;;;;;2.47;2.28;;;23.40;63.80;;;;;;5033046;28;20570;-67
2021/07/26 02:37:10;;;;;;;4.15;2.28;;;23.40;63.80;;;;;;5034276;28;20172;-67
2021/07/26 02:39:35;;;;;;;2.20;2.10;;;23.40;63.80;;;;;;5032499;28;20369;-68
2021/07/26 02:42:01;;;;;;;2.30;2.05;;;23.30;63.70;;;;;;5032254;28;20601;-69
2021/07/26 02:44:29;;;;;;;1.92;1.83;;;23.40;63.80;;;;;;5032572;28;20530;-68
2021/07/26 02:46:55;;;;;;;2.50;2.30;;;23.30;63.80;;;;;;5032498;28;20179;-69
2021/07/26 02:49:20;;;;;;;1.80;1.70;;;23.30;63.80;;;;;;5031894;28;20231;-68
2021/07/26 02:51:46;;;;;;;2.20;2.00;;;23.30;63.70;;;;;;5032906;28;20180;-67
2021/07/26 02:54:11;;;;;;;2.30;2.20;;;23.30;64.60;;;;;;5032708;28;20172;-68
2021/07/26 02:56:39;;;;;;;2.72;2.45;;;23.30;63.70;;;;;;5031653;28;20206;-67
2021/07/26 02:59:05;;;;;;;2.38;2.13;;;23.30;63.70;;;;;;5032627;28;20226;-67
2021/07/26 03:01:32;;;;;;;2.42;2.22;;;23.30;63.80;;;;;;5032291;28;20179;-68
2021/07/26 03:03:59;;;;;;;2.40;2.20;;;23.30;63.80;;;;;;5031831;28;20630;-67
2021/07/26 03:06:25;;;;;;;2.08;1.98;;;23.30;63.80;;;;;;5033356;28;20626;-69
2021/07/26 03:08:53;;;;;;;2.13;2.00;;;23.30;63.80;;;;;;5036149;28;20179;-68
2021/07/26 03:11:19;;;;;;;2.28;2.08;;;23.30;63.80;;;;;;5035924;28;20637;-68
2021/07/26 03:13:45;;;;;;;1.95;1.80;;;23.30;63.80;;;;;;5036197;28;20218;-68
2021/07/26 03:16:11;;;;;;;2.47;2.25;;;23.30;63.80;;;;;;5035369;28;20183;-68
2021/07/26 03:18:37;;;;;;;2.35;2.15;;;23.20;63.70;;;;;;5035896;28;20179;-68
2021/07/26 03:21:02;;;;;;;2.60;2.30;;;23.30;63.80;;;;;;5035866;28;20215;-67
2021/07/26 03:23:28;;;;;;;2.70;2.50;;;23.20;63.80;;;;;;5035569;28;20176;-69
2021/07/26 03:25:53;;;;;;;1.90;1.80;;;23.30;63.80;;;;;;5036018;28;20199;-68
2021/07/26 03:28:19;;;;;;;2.10;1.90;;;23.30;63.80;;;;;;5036139;28;20676;-68
2021/07/26 03:30:44;;;;;;;1.98;1.70;;;23.20;63.80;;;;;;5035133;28;20629;-67
2021/07/26 03:33:11;;;;;;;2.00;1.90;;;23.20;63.70;;;;;;5036350;28;20176;-67
2021/07/26 03:35:40;;;;;;;1.85;1.75;;;23.20;63.70;;;;;;5035686;28;20535;-67
2021/07/26 03:38:05;;;;;;;2.35;1.95;;;23.30;63.80;;;;;;5035173;28;20541;-68
2021/07/26 03:40:32;;;;;;;2.05;1.85;;;23.20;63.80;;;;;;5035876;28;20676;-69
2021/07/26 03:42:57;;;;;;;2.30;2.10;;;23.30;63.80;;;;;;5035697;28;20186;-69
2021/07/26 03:45:23;;;;;;;2.47;2.10;;;23.20;63.80;;;;;;5034550;28;20171;-68
2021/07/26 03:47:50;;;;;;;2.33;2.10;;;23.30;63.90;;;;;;5035838;28;20259;-69
2021/07/26 03:50:16;;;;;;;2.42;1.95;;;23.20;63.80;;;;;;5035242;28;20227;-68
2021/07/26 03:53:08;;;;;;;2.33;2.13;;;23.20;63.80;;;;;;5034893;28;20702;-68
2021/07/26 03:55:35;;;;;;;1.98;1.88;;;23.20;63.80;;;;;;5030461;28;20516;-68
2021/07/26 03:58:01;;;;;;;2.92;2.20;;;23.20;63.80;;;;;;5035345;28;20171;-68
2021/07/26 04:00:27;;;;;;;1.98;1.88;;;23.20;63.80;;;;;;5034831;28;20338;-68
2021/07/26 04:03:12;;;;;;;2.35;1.98;;;23.20;63.80;;;;;;5035814;28;20642;-68
2021/07/26 04:05:40;;;;;;;2.47;1.70;;;23.20;63.70;;;;;;5034506;28;20657;-68
2021/07/26 04:08:14;;;;;;;1.70;1.60;;;23.20;63.80;;;;;;5035137;28;20255;-69
2021/07/26 04:10:43;;;;;;;1.98;1.88;;;23.20;63.70;;;;;;5035430;28;20172;-69
2021/07/26 04:13:08;;;;;;;2.10;1.90;;;23.20;63.70;;;;;;5035562;28;20172;-68
2021/07/26 04:15:34;;;;;;;1.73;1.63;;;23.20;63.70;;;;;;5034967;28;20519;-68
2021/07/26 04:17:59;;;;;;;2.95;2.00;;;23.20;63.80;;;;;;5034707;28;20635;-68
2021/07/26 04:20:25;;;;;;;2.10;1.90;;;23.20;63.80;;;;;;5033973;28;20262;-69
2021/07/26 04:22:50;;;;;;;1.80;1.70;;;23.20;63.80;;;;;;5036361;28;20224;-69
2021/07/26 04:25:17;;;;;;;2.05;1.80;;;23.20;63.70;;;;;;5035351;28;20182;-68
2021/07/26 04:27:42;;;;;;;3.97;2.50;;;23.20;63.70;;;;;;5035307;28;20242;-68
2021/07/26 04:30:08;;;;;;;2.08;1.95;;;23.20;63.70;;;;;;5034944;28;20708;-66
2021/07/26 04:32:44;;;;;;;2.15;1.80;;;23.20;63.70;;;;;;5034334;28;20176;-67
2021/07/26 04:35:10;;;;;;;1.73;1.63;;;23.20;63.80;;;;;;5034352;28;20179;-67
2021/07/26 04:37:36;;;;;;;3.10;1.77;;;23.20;63.80;;;;;;5034979;28;20183;-67
2021/07/26 04:40:02;;;;;;;1.90;1.80;;;23.20;63.70;;;;;;5034905;28;20678;-68
2021/07/26 04:42:27;;;;;;;2.80;2.00;;;23.20;63.80;;;;;;5034331;28;20184;-69
2021/07/26 04:44:53;;;;;;;2.03;1.80;;;23.10;63.70;;;;;;5034703;28;20578;-69
2021/07/26 04:47:18;;;;;;;2.15;1.70;;;23.10;63.70;;;;;;5033621;28;20195;-68
2021/07/26 04:49:47;;;;;;;3.25;1.88;;;23.10;63.70;;;;;;5034329;28;20340;-68
2021/07/26 04:52:13;;;;;;;1.98;1.80;;;23.10;63.70;;;;;;5034943;28;20176;-70
2021/07/26 04:54:39;;;;;;;1.55;1.45;;;23.10;63.60;;;;;;5033530;28;20767;-68
2021/07/26 04:57:04;;;;;;;1.80;1.70;;;23.20;63.70;;;;;;5034332;28;20270;-68
2021/07/26 04:59:30;;;;;;;1.83;1.70;;;23.10;63.60;;;;;;5017049;28;20204;-68
2021/07/26 05:01:55;;;;;;;2.08;1.88;;;23.20;63.70;;;;;;5033819;28;20622;-68
2021/07/26 05:04:21;;;;;;;1.65;1.55;;;23.20;63.70;;;;;;5033866;28;20235;-68
2021/07/26 05:06:46;;;;;;;2.20;1.70;;;23.10;63.60;;;;;;5034346;28;20180;-69
2021/07/26 05:09:12;;;;;;;1.75;1.65;;;23.20;63.70;;;;;;5033546;28;20191;-68
2021/07/26 05:11:40;;;;;;;2.08;1.88;;;23.20;63.70;;;;;;5033838;28;20251;-69
2021/07/26 05:14:08;;;;;;;1.70;1.60;;;23.20;63.60;;;;;;5033998;28;20206;-68
2021/07/26 05:16:34;;;;;;;1.90;1.73;;;23.20;63.60;;;;;;5015834;28;20226;-68
2021/07/26 05:19:00;;;;;;;2.10;1.60;;;23.20;63.60;;;;;;5034331;28;20175;-68
2021/07/26 05:21:25;;;;;;;2.17;1.98;;;23.20;63.60;;;;;;5034086;28;20641;-69
2021/07/26 05:23:51;;;;;;;1.92;1.73;;;23.20;63.70;;;;;;5033135;28;20196;-69
2021/07/26 05:26:16;;;;;;;1.95;1.50;;;23.20;63.60;;;;;;5033871;28;20229;-68
2021/07/26 05:28:42;;;;;;;1.83;1.73;;;23.20;63.70;;;;;;5033140;28;20180;-67
2021/07/26 05:31:08;;;;;;;1.83;1.67;;;23.20;63.70;;;;;;5033491;28;20182;-67
2021/07/26 05:33:33;;;;;;;2.00;1.90;;;23.10;63.50;;;;;;5033299;28;20207;-67
2021/07/26 05:35:59;;;;;;;1.70;1.60;;;23.20;63.60;;;;;;5033557;28;20329;-67
2021/07/26 05:38:24;;;;;;;1.63;1.52;;;23.20;63.60;;;;;;5032486;28;20172;-69
2021/07/26 05:40:50;;;;;;;2.08;1.83;;;23.20;63.60;;;;;;5033632;28;20216;-69
2021/07/26 05:43:15;;;;;;;3.15;1.70;;;23.20;63.60;;;;;;5033863;28;20171;-69
2021/07/26 05:45:41;;;;;;;1.80;1.70;;;23.20;63.50;;;;;;5032990;28;20167;-69
2021/07/26 05:48:06;;;;;;;1.63;1.52;;;23.20;63.50;;;;;;5033325;28;20192;-69
2021/07/26 05:50:32;;;;;;;2.38;1.65;;;23.20;63.50;;;;;;5032794;28;20230;-68
2021/07/26 05:52:57;;;;;;;1.75;1.63;;;23.20;63.50;;;;;;5032784;28;20199;-68
2021/07/26 05:55:23;;;;;;;3.40;2.10;;;23.20;63.40;;;;;;5033148;28;20176;-67
2021/07/26 05:57:50;;;;;;;1.77;1.63;;;23.20;63.40;;;;;;5032540;28;20540;-67
2021/07/26 06:00:23;;;;;;;2.83;1.80;;;23.20;63.40;;;;;;5033095;28;20673;-69
2021/07/26 06:02:49;;;;;;;1.77;1.67;;;23.20;63.50;;;;;;5033029;28;20692;-68
2021/07/26 06:05:14;;;;;;;1.45;1.35;;;23.20;63.50;;;;;;5032510;28;20184;-68
2021/07/26 06:07:40;;;;;;;2.05;1.85;;;23.20;63.50;;;;;;5032894;28;20176;-66
2021/07/26 06:10:06;;;;;;;4.00;1.63;;;23.20;63.60;;;;;;5033300;28;20174;-66
2021/07/26 06:12:31;;;;;;;1.65;1.55;;;23.20;63.60;;;;;;5032025;28;20172;-65
2021/07/26 06:14:57;;;;;;;2.40;1.60;;;23.30;63.60;;;;;;5033480;28;20172;-64
2021/07/26 06:17:22;;;;;;;2.90;1.60;;;23.30;63.70;;;;;;5032409;28;20171;-63
2021/07/26 06:19:48;;;;;;;1.63;1.52;;;23.30;63.60;;;;;;5032365;28;20265;-64
2021/07/26 06:22:16;;;;;;;1.77;1.50;;;23.30;63.50;;;;;;5033309;28;20179;-64
2021/07/26 06:24:41;;;;;;;1.83;1.50;;;23.30;63.50;;;;;;5032883;28;20595;-64
2021/07/26 06:27:07;;;;;;;2.35;1.80;;;23.30;63.40;;;;;;5032053;28;20622;-64
2021/07/26 06:29:32;;;;;;;2.28;1.90;;;23.30;63.50;;;;;;5032384;28;20187;-63
2021/07/26 06:31:58;;;;;;;2.45;1.65;;;23.30;63.50;;;;;;5032711;28;20176;-65
2021/07/26 06:34:24;;;;;;;2.10;1.90;;;23.30;63.50;;;;;;5032016;28;20183;-65
2021/07/26 06:36:49;;;;;;;2.72;1.88;;;23.40;63.60;;;;;;5033057;28;20234;-65
2021/07/26 06:39:18;;;;;;;2.17;1.65;;;23.40;63.50;;;;;;5033076;28;20172;-65
2021/07/26 06:41:44;;;;;;;2.70;1.70;;;23.40;63.50;;;;;;5018287;28;20225;-65
2021/07/26 06:44:09;;;;;;;2.97;1.77;;;23.40;63.50;;;;;;5036969;28;20171;-65
2021/07/26 06:46:35;;;;;;;2.42;1.60;;;23.40;63.40;;;;;;5037207;28;20471;-66
2021/07/26 06:49:03;;;;;;;1.88;1.77;;;23.50;63.40;;;;;;5036318;28;20219;-66
2021/07/26 06:51:28;;;;;;;1.70;1.60;;;23.40;63.30;;;;;;5037670;28;20599;-65
2021/07/26 06:53:54;;;;;;;1.95;1.48;;;23.50;63.40;;;;;;5035977;28;20246;-65
2021/07/26 06:56:19;;;;;;;2.35;2.15;;;23.40;63.30;;;;;;5036218;28;20544;-65
2021/07/26 06:58:45;;;;;;;3.58;1.80;;;23.40;63.40;;;;;;5036617;28;20637;-65
2021/07/26 07:01:12;;;;;;;1.85;1.67;;;23.40;63.50;;;;;;5035577;28;20214;-64
2021/07/26 07:03:40;;;;;;;2.65;2.05;;;23.40;63.40;;;;;;5036059;28;20687;-66
2021/07/26 07:06:08;;;;;;;1.90;1.70;;;23.50;63.50;;;;;;5036871;28;20191;-66
2021/07/26 07:08:33;;;;;;;2.97;1.70;;;23.50;63.40;;;;;;5035441;28;20205;-65
2021/07/26 07:11:09;;;;;;;2.22;1.70;;;23.50;63.40;;;;;;5036317;28;20214;-65
2021/07/26 07:13:57;;;;;;;1.73;1.63;;;23.50;63.30;;;;;;5035928;28;20210;-64
2021/07/26 07:16:23;;;;;;;2.65;1.65;;;23.50;63.30;;;;;;5035324;28;20234;-64
2021/07/26 07:18:53;;;;;;;2.00;1.77;;;23.60;63.30;;;;;;5036251;28;20168;-65
2021/07/26 07:21:29;;;;;;;2.00;1.90;;;23.60;63.30;;;;;;5035759;28;20207;-65
2021/07/26 07:23:55;;;;;;;2.13;1.90;;;23.60;63.40;;;;;;5035271;28;20186;-65
2021/07/26 07:26:26;;;;;;;2.10;1.90;;;23.60;63.40;;;;;;5035887;28;20246;-65
2021/07/26 07:28:51;;;;;;;2.25;1.80;;;23.60;63.40;;;;;;5036064;28;20172;-63
2021/07/26 07:31:22;;;;;;;1.65;1.55;;;23.60;63.50;;;;;;5035023;28;20737;-64
2021/07/26 07:33:48;;;;;;;2.65;2.15;;;23.60;63.60;;;;;;5036003;28;20194;-64
2021/07/26 07:36:13;;;;;;;2.25;1.98;;;23.50;63.60;;;;;;5035050;28;20266;-64
2021/07/26 07:38:45;;;;;;;1.90;1.77;;;23.50;63.60;;;;;;5035418;28;20171;-65
2021/07/26 07:41:10;;;;;;;2.85;1.80;;;23.50;63.70;;;;;;5035722;28;20733;-65
2021/07/26 07:43:36;;;;;;;1.92;1.77;;;23.50;63.70;;;;;;5034793;28;20258;-65
2021/07/26 07:46:01;;;;;;;2.00;1.90;;;23.50;63.70;;;;;;5035685;28;20696;-66
2021/07/26 07:48:27;;;;;;;3.97;2.15;;;23.50;63.80;;;;;;5035142;28;20234;-65
2021/07/26 07:50:53;;;;;;;2.00;1.65;;;23.50;63.90;;;;;;5034839;28;20196;-65
2021/07/26 07:53:19;;;;;;;2.92;2.00;;;23.50;63.80;;;;;;5034125;28;20179;-65
2021/07/26 07:55:45;;;;;;;2.03;1.85;;;23.50;63.60;;;;;;5035426;28;20176;-65
2021/07/26 07:58:10;;;;;;;3.75;1.83;;;23.60;63.80;;;;;;5034779;28;20202;-65
2021/07/26 08:00:36;;;;;;;5.20;1.88;;;23.60;63.70;;;;;;5035090;28;20674;-64
2021/07/26 08:03:01;;;;;;;2.55;2.00;;;23.60;63.70;;;;;;5035512;28;20254;-65
2021/07/26 08:05:27;;;;;;;2.30;2.05;;;23.50;63.70;;;;;;5034268;28;20176;-65
2021/07/26 08:07:53;;;;;;;2.83;2.05;;;23.50;63.80;;;;;;5035161;28;20179;-65
2021/07/26 08:10:18;;;;;;;2.65;2.20;;;23.50;63.70;;;;;;5034784;28;20518;-65
2021/07/26 08:12:44;;;;;;;1.85;1.75;;;23.50;63.80;;;;;;5034798;28;20634;-64
2021/07/26 08:15:10;;;;;;;2.28;1.77;;;23.50;63.80;;;;;;5035310;28;20623;-64
2021/07/26 08:17:46;;;;;;;1.90;1.70;;;23.50;63.80;;;;;;5034756;28;20638;-65
2021/07/26 08:20:13;;;;;;;2.15;1.95;;;23.50;63.90;;;;;;5034002;28;20215;-66
2021/07/26 08:22:39;;;;;;;2.20;2.00;;;23.50;63.90;;;;;;5035132;28;20180;-65
2021/07/26 08:25:05;;;;;;;1.90;1.80;;;23.50;63.90;;;;;;5034910;28;20608;-64
2021/07/26 08:27:31;;;;;;;2.90;1.80;;;23.50;63.90;;;;;;5033737;28;20172;-64
2021/07/26 08:29:56;;;;;;;1.85;1.63;;;23.50;64.00;;;;;;5034997;28;20507;-64
2021/07/26 08:32:22;;;;;;;2.20;1.73;;;23.50;63.90;;;;;;5033980;28;20580;-64
2021/07/26 08:34:47;;;;;;;2.15;2.00;;;23.50;63.90;;;;;;5034629;28;20657;-65
2021/07/26 08:37:13;;;;;;;2.42;2.03;;;23.60;63.90;;;;;;5016883;28;20187;-64
2021/07/26 08:39:39;;;;;;;2.20;2.00;;;23.60;63.80;;;;;;5033738;28;20242;-65
2021/07/26 08:42:05;;;;;;;2.65;2.10;;;23.60;63.90;;;;;;5034633;28;20187;-65
2021/07/26 08:44:33;;;;;;;2.13;2.03;;;23.60;63.80;;;;;;5034346;28;20176;-64
2021/07/26 08:46:58;;;;;;;2.13;1.92;;;23.60;63.90;;;;;;5033745;28;20172;-66
2021/07/26 08:49:26;;;;;;;2.35;2.15;;;23.60;64.00;;;;;;5034004;28;20212;-65
2021/07/26 08:51:52;;;;;;;2.20;2.00;;;23.60;63.80;;;;;;5034446;28;20294;-65
2021/07/26 08:54:17;;;;;;;2.30;2.10;;;23.60;63.80;;;;;;5033773;28;20259;-65
2021/07/26 08:56:43;;;;;;;2.13;1.88;;;23.60;63.80;;;;;;5016896;28;20684;-65
2021/07/26 08:59:08;;;;;;;2.60;2.10;;;23.70;63.80;;;;;;5000854;28;20171;-65
2021/07/26 09:01:34;;;;;;;1.73;1.63;;;23.70;63.80;;;;;;5015526;28;20176;-66
2021/07/26 09:03:59;;;;;;;2.38;1.85;;;23.70;63.80;;;;;;5034121;28;20211;-65
2021/07/26 09:06:25;;;;;;;2.45;2.00;;;23.60;63.90;;;;;;5033738;28;20174;-65
2021/07/26 09:08:52;;;;;;;2.45;1.90;;;23.60;63.90;;;;;;5033564;28;20226;-65
2021/07/26 09:11:18;;;;;;;2.00;1.90;;;23.70;63.90;;;;;;5016051;28;20176;-64
2021/07/26 09:13:46;;;;;;;2.35;2.08;;;23.70;63.80;;;;;;5034099;28;20167;-64
2021/07/26 09:16:15;;;;;;;2.00;1.80;;;23.70;63.70;;;;;;5033246;28;20210;-65
2021/07/26 09:18:41;;;;;;;3.45;2.30;;;23.70;63.80;;;;;;5033874;28;20630;-65
2021/07/26 09:21:07;;;;;;;1.98;1.83;;;23.70;63.70;;;;;;5033635;28;20215;-66
2021/07/26 09:23:34;;;;;;;2.20;2.10;;;23.80;63.60;;;;;;5032961;28;20178;-65
2021/07/26 09:26:03;;;;;;;3.17;1.88;;;23.90;63.50;;;;;;5033888;28;20195;-65
2021/07/26 09:28:31;;;;;;;2.50;1.90;;;23.90;63.40;;;;;;5016225;28;20183;-63
2021/07/26 09:30:57;;;;;;;1.75;1.65;;;23.90;63.40;;;;;;5032968;28;20176;-64
2021/07/26 09:33:42;;;;;;;1.77;1.67;;;24.00;63.30;;;;;;5033175;28;20187;-64
2021/07/26 09:36:12;;;;;;;2.47;2.28;;;24.00;63.30;;;;;;5033086;28;20290;-64
2021/07/26 09:38:42;;;;;;;2.20;1.67;;;23.90;63.40;;;;;;5033232;28;20230;-64
2021/07/26 09:41:08;;;;;;;2.22;2.03;;;23.90;63.50;;;;;;5033389;28;20223;-65
2021/07/26 09:43:38;;;;;;;1.85;1.75;;;23.90;63.50;;;;;;5032539;28;20176;-65
2021/07/26 09:46:03;;;;;;;2.97;1.98;;;23.90;63.70;;;;;;5033530;28;20180;-66
2021/07/26 09:48:35;;;;;;;2.03;1.80;;;23.90;63.80;;;;;;5015500;28;20226;-65
2021/07/26 09:51:03;;;;;;;2.70;2.13;;;23.80;63.90;;;;;;5032757;28;20242;-65
2021/07/26 09:53:29;;;;;;;1.75;1.65;;;23.80;64.00;;;;;;5032659;28;20287;-64
2021/07/26 09:55:56;;;;;;;2.08;1.90;;;23.80;64.00;;;;;;5033310;28;20678;-64
2021/07/26 09:58:38;;;;;;;1.80;1.70;;;24.00;63.80;;;;;;5032123;28;20183;-64
2021/07/26 10:01:04;;;;;;;1.73;1.58;;;24.00;64.40;;;;;;5033213;28;20234;-64
2021/07/26 10:03:30;;;;;;;2.33;1.88;;;24.00;63.70;;;;;;5032830;28;20669;-65
2021/07/26 10:05:55;;;;;;;1.90;1.80;;;24.00;63.40;;;;;;5014916;28;20198;-65
2021/07/26 10:08:21;;;;;;;1.70;1.60;;;24.10;63.20;;;;;;4999217;28;20176;-65
2021/07/26 10:10:47;;;;;;;1.83;1.67;;;24.10;63.30;;;;;;5032799;28;20184;-65
2021/07/26 10:13:12;;;;;;;2.08;1.77;;;24.10;63.40;;;;;;5032690;28;20646;-64
2021/07/26 10:15:38;;;;;;;2.05;1.85;;;24.00;63.50;;;;;;5032405;28;20252;-64
2021/07/26 10:18:04;;;;;;;2.33;1.88;;;24.00;63.70;;;;;;5032307;28;20574;-64
2021/07/26 10:20:31;;;;;;;1.70;1.60;;;24.00;64.70;;;;;;5032703;28;20207;-65
2021/07/26 10:22:58;;;;;;;2.05;1.92;;;24.00;63.90;;;;;;5032793;28;20540;-65
2021/07/26 10:25:28;;;;;;;1.95;1.75;;;24.00;63.90;;;;;;5014226;28;20259;-63
2021/07/26 10:27:55;;;;;;;2.58;1.70;;;24.00;63.90;;;;;;5015254;28;20179;-63
2021/07/26 10:30:39;;;;;;;2.20;2.00;;;24.00;64.30;;;;;;5015374;28;20234;-63
2021/07/26 10:33:11;;;;;;;2.03;1.80;;;24.00;64.90;;;;;;5029129;28;20182;-63
2021/07/26 10:35:50;;;;;;;2.35;2.15;;;24.00;64.00;;;;;;5045327;28;20524;-64
2021/07/26 10:38:44;;;;;;;3.50;2.10;;;24.00;64.00;;;;;;5036641;28;20252;-64
2021/07/26 10:41:10;;;;;;;6.35;2.35;;;24.00;64.00;;;;;;5036615;28;20564;-64
2021/07/26 10:43:55;;;;;;;2.30;2.10;;;24.10;63.80;;;;;;5018364;28;20172;-64
2021/07/26 10:46:21;;;;;;;2.30;1.83;;;24.20;63.60;;;;;;5039831;28;20183;-64
2021/07/26 10:48:50;;;;;;;2.30;2.15;;;24.30;63.40;;;;;;5014694;28;20345;-64
2021/07/26 10:51:35;;;;;;;1.85;1.73;;;24.30;63.30;;;;;;5035610;28;20216;-64
2021/07/26 10:54:03;;;;;;;2.42;2.10;;;24.30;63.20;;;;;;5051679;28;20175;-64
2021/07/26 10:56:29;;;;;;;1.95;1.85;;;24.30;63.20;;;;;;5052301;28;20262;-64
2021/07/26 10:59:02;;;;;;;2.97;2.10;;;24.30;63.40;;;;;;5034432;28;20609;-64
2021/07/26 11:01:27;;;;;;;3.30;2.17;;;24.30;63.30;;;;;;5034542;28;20207;-64
2021/07/26 11:03:53;;;;;;;2.92;2.28;;;24.30;63.30;;;;;;5032495;28;20175;-66
2021/07/26 11:06:35;;;;;;;3.65;2.38;;;24.20;63.40;;;;;;5032073;28;20176;-65
2021/07/26 11:09:19;;;;;;;4.28;2.33;;;24.20;63.40;;;;;;5032039;28;20175;-64
2021/07/26 11:11:48;;;;;;;5.28;2.47;;;24.30;63.60;;;;;;5032381;28;20186;-64
2021/07/26 11:14:14;;;;;;;6.72;2.40;;;24.30;63.30;;;;;;5031754;28;20184;-64
2021/07/26 11:16:49;;;;;;;5.03;2.63;;;24.30;63.50;;;;;;5033782;28;20198;-64
2021/07/26 11:19:54;;;;;;;5.55;2.58;;;24.30;63.40;;;;;;5052168;28;20198;-65
2021/07/26 11:22:21;;;;;;;3.42;2.40;;;24.30;63.30;;;;;;5051250;28;20554;-65
2021/07/26 11:24:51;;;;;;;2.95;2.22;;;24.30;63.20;;;;;;5052526;28;20183;-64
2021/07/26 11:27:22;;;;;;;3.30;2.42;;;24.30;63.00;;;;;;5052747;28;20183;-65
2021/07/26 11:29:51;;;;;;;3.40;2.40;;;24.30;63.90;;;;;;5055148;28;20211;-65
2021/07/26 11:32:18;;;;;;;2.67;2.33;;;24.30;62.90;;;;;;5055796;28;20293;-65
2021/07/26 11:34:43;;;;;;;3.67;2.50;;;24.30;62.80;;;;;;5056042;28;20274;-65
2021/07/26 11:37:13;;;;;;;3.17;2.30;;;24.30;62.60;;;;;;5055159;28;20696;-66
2021/07/26 11:39:51;;;;;;;3.53;2.17;;;24.30;62.50;;;;;;5055122;28;20667;-68
2021/07/26 11:42:18;;;;;;;5.43;2.63;;;24.30;62.40;;;;;;5054652;28;20178;-70
2021/07/26 11:44:47;;;;;;;4.05;2.20;;;24.30;62.20;;;;;;5055678;28;20262;-68
2021/07/26 11:47:14;;;;;;;3.13;2.42;;;24.30;62.20;;;;;;5055557;28;20186;-68
2021/07/26 11:49:47;;;;;;;4.25;2.35;;;24.30;62.20;;;;;;5054335;28;20235;-68
2021/07/26 11:52:12;;;;;;;2.20;2.10;;;24.40;62.30;;;;;;5042174;28;20184;-69
2021/07/26 11:54:38;;;;;;;4.05;2.50;;;24.40;62.30;;;;;;5034891;28;20657;-67
2021/07/26 11:57:08;;;;;;;4.50;2.33;;;24.40;62.20;;;;;;5034602;28;20175;-66
2021/07/26 11:59:34;;;;;;;4.35;2.20;;;24.40;62.20;;;;;;5034880;28;20665;-67
2021/07/26 12:02:11;;;;;;;3.40;2.50;;;24.30;62.10;;;;;;5018005;28;20204;-66
2021/07/26 12:04:36;;;;;;;2.90;1.80;;;24.40;62.00;;;;;;5016943;28;20180;-67
2021/07/26 12:07:06;;;;;;;2.63;2.42;;;24.40;61.60;;;;;;5017697;28;20221;-67
2021/07/26 12:09:32;;;;;;;3.05;2.28;;;24.50;61.20;;;;;;5034924;28;20176;-66
2021/07/26 12:12:11;;;;;;;2.80;2.10;;;24.50;61.10;;;;;;5034621;28;20183;-66
2021/07/26 12:14:37;;;;;;;2.78;2.17;;;24.50;61.10;;;;;;5034811;28;20194;-66
2021/07/26 12:17:06;;;;;;;4.63;2.63;;;24.50;61.10;;;;;;5035164;28;20747;-66
2021/07/26 12:19:39;;;;;;;3.40;2.33;;;24.60;61.20;;;;;;5033689;28;20168;-68
2021/07/26 12:22:21;;;;;;;3.00;2.28;;;24.60;61.00;;;;;;5034889;28;20180;-66
2021/07/26 12:24:58;;;;;;;2.90;2.38;;;24.60;61.20;;;;;;5034167;28;20214;-65
2021/07/26 12:27:26;;;;;;;3.78;2.55;;;24.60;61.10;;;;;;5034619;28;20203;-65
2021/07/26 12:30:03;;;;;;;2.83;2.30;;;24.60;60.90;;;;;;5034773;28;20172;-65
2021/07/26 12:32:28;;;;;;;2.20;2.00;;;24.70;60.80;;;;;;5033650;28;20526;-64
2021/07/26 12:35:13;;;;;;;4.38;2.40;;;24.60;60.50;;;;;;5034921;28;20175;-67
2021/07/26 12:37:38;;;;;;;4.78;2.28;;;24.60;60.40;;;;;;5034339;28;20178;-66
2021/07/26 12:40:16;;;;;;;3.53;2.10;;;24.60;60.40;;;;;;5034186;28;20203;-67
2021/07/26 12:42:42;;;;;;;3.03;2.28;;;24.60;60.40;;;;;;5034897;28;20164;-67
2021/07/26 12:45:24;;;;;;;4.88;2.30;;;24.70;60.40;;;;;;5034518;28;20187;-67
2021/07/26 12:47:52;;;;;;;4.68;2.40;;;24.70;60.30;;;;;;5033835;28;20172;-68
2021/07/26 12:50:17;;;;;;;2.45;2.25;;;24.80;59.90;;;;;;5034002;28;20231;-67